Time,TemperatureF,DewpointF,PressureIn,WindDirection,WindDirectionDegrees,WindSpeedMPH,WindSpeedGustMPH,Humidity,HourlyPrecipIn,Conditions,Clouds,dailyrainin,SoftwareType,DateUTC
2014-12-18 00:03:00,52.7,51.3,29.94,South,180,0.0,0.0,95,0.00,,---,0.63,VWS V14.01,2014-12-17 22:03:00,
2014-12-18 00:09:00,52.7,51.3,29.94,South,181,0.0,0.0,95,0.00,,---,0.00,VWS V14.01,2014-12-17 22:09:00,
2014-12-18 00:14:00,52.5,51.1,29.94,South,180,0.0,0.0,95,0.00,,---,0.00,VWS V14.01,2014-12-17 22:14:00,
2014-12-18 00:20:00,52.3,51.0,29.94,SSW,203,0.0,0.0,95,0.00,,---,0.00,VWS V14.01,2014-12-17 22:20:00,
2014-12-18 00:25:00,52.2,50.8,29.94,SSW,208,0.0,0.0,95,0.00,,---,0.00,VWS V14.01,2014-12-17 22:25:00,
2014-12-18 00:31:00,52.0,50.6,29.94,SSW,206,0.0,0.0,95,0.00,,---,0.00,VWS V14.01,2014-12-17 22:31:00,
2014-12-18 00:36:00,51.8,50.4,29.94,SSW,206,0.0,0.0,95,0.00,,---,0.00,VWS V14.01,2014-12-17 22:36:00,
2014-12-18 00:42:00,51.8,50.4,29.94,South,189,0.0,0.0,95,0.00,,---,0.00,VWS V14.01,2014-12-17 22:42:00,
2014-12-18 00:47:00,51.8,50.4,29.94,SSW,203,3.6,3.6,95,0.00,,---,0.00,VWS V14.01,2014-12-17 22:47:00,
2014-12-18 00:52:00,51.6,50.2,29.94,SSW,204,4.0,4.0,95,0.00,,---,0.00,VWS V14.01,2014-12-17 22:52:00,
2014-12-18 00:58:00,51.6,50.2,29.94,SW,223,2.7,3.1,95,0.00,,---,0.00,VWS V14.01,2014-12-17 22:58:00,
2014-12-18 01:03:00,51.4,50.1,29.94,SSW,202,0.0,0.0,95,0.00,,---,0.00,VWS V14.01,2014-12-17 23:03:00,
2014-12-18 01:09:00,51.4,50.1,29.94,SSW,201,0.0,0.0,95,0.00,,---,0.00,VWS V14.01,2014-12-17 23:09:00,
2014-12-18 01:14:00,51.3,49.9,29.94,SSW,202,0.0,0.0,95,0.00,,---,0.00,VWS V14.01,2014-12-17 23:14:00,
2014-12-18 01:20:00,51.3,49.9,29.94,SSW,202,0.0,0.0,95,0.00,,---,0.00,VWS V14.01,2014-12-17 23:20:00,
2014-12-18 01:26:00,51.3,49.9,29.94,SSW,202,0.0,0.0,95,0.00,,---,0.00,VWS V14.01,2014-12-17 23:26:00,
2014-12-18 01:31:00,51.3,49.9,29.94,SSW,202,0.0,0.0,95,0.00,,---,0.00,VWS V14.01,2014-12-17 23:31:00,
2014-12-18 01:36:00,51.3,49.9,29.94,SSW,202,0.0,0.0,95,0.00,,---,0.00,VWS V14.01,2014-12-17 23:36:00,
2014-12-18 01:41:00,51.3,49.9,29.94,SSW,202,0.0,0.0,95,0.00,,---,0.00,VWS V14.01,2014-12-17 23:41:00,
2014-12-18 01:47:00,51.3,49.9,29.94,SSW,202,0.0,0.0,95,0.00,,---,0.00,VWS V14.01,2014-12-17 23:47:00,
2014-12-18 01:52:00,51.4,50.3,29.94,SSW,202,0.0,0.0,96,0.00,,---,0.00,VWS V14.01,2014-12-17 23:52:00,
2014-12-18 01:58:00,51.4,50.3,29.94,SSW,202,0.0,0.0,96,0.00,,---,0.00,VWS V14.01,2014-12-17 23:58:00,
2014-12-18 02:03:00,51.4,50.3,29.94,SSW,202,0.0,0.0,96,0.00,,---,0.00,VWS V14.01,2014-12-18 00:03:00,
2014-12-18 02:09:00,51.6,50.5,29.94,SSW,202,0.0,0.0,96,0.00,,---,0.00,VWS V14.01,2014-12-18 00:09:00,
2014-12-18 02:14:00,51.6,50.5,29.94,SSW,202,0.0,0.0,96,0.00,,---,0.00,VWS V14.01,2014-12-18 00:14:00,
2014-12-18 02:20:00,51.8,50.4,29.94,SSW,202,0.0,0.0,95,0.00,,---,0.00,VWS V14.01,2014-12-18 00:20:00,
2014-12-18 02:25:00,52.0,50.6,29.94,SSW,202,0.0,0.0,95,0.00,,---,0.00,VWS V14.01,2014-12-18 00:25:00,
2014-12-18 02:30:00,52.0,50.9,29.94,ENE,76,0.0,0.0,96,0.00,,---,0.00,VWS V14.01,2014-12-18 00:30:00,
2014-12-18 02:35:00,52.0,50.9,29.94,ENE,75,0.0,0.0,96,0.00,,---,0.00,VWS V14.01,2014-12-18 00:35:00,
2014-12-18 02:41:00,52.0,50.6,29.94,East,97,0.0,0.0,95,0.00,,---,0.00,VWS V14.01,2014-12-18 00:41:00,
2014-12-18 02:46:00,52.2,50.8,29.94,East,97,0.0,0.0,95,0.00,,---,0.00,VWS V14.01,2014-12-18 00:46:00,
2014-12-18 02:51:00,52.2,50.8,29.94,East,98,0.0,0.0,95,0.00,,---,0.00,VWS V14.01,2014-12-18 00:51:00,
2014-12-18 02:57:00,52.0,50.6,29.94,SSE,147,0.0,0.0,95,0.00,,---,0.00,VWS V14.01,2014-12-18 00:57:00,
2014-12-18 03:02:00,52.0,50.6,29.94,SSE,148,0.0,0.0,95,0.00,,---,0.00,VWS V14.01,2014-12-18 01:02:00,
2014-12-18 03:08:00,51.8,50.4,29.94,SSE,147,0.0,0.0,95,0.00,,---,0.00,VWS V14.01,2014-12-18 01:08:00,
2014-12-18 03:13:00,51.6,50.5,29.94,SSE,147,0.0,0.0,96,0.00,,---,0.00,VWS V14.01,2014-12-18 01:13:00,
2014-12-18 03:19:00,51.4,50.3,29.94,SSE,148,0.0,0.0,96,0.00,,---,0.00,VWS V14.01,2014-12-18 01:19:00,
2014-12-18 03:25:00,51.4,50.3,29.94,SSE,148,0.0,0.0,96,0.00,,---,0.00,VWS V14.01,2014-12-18 01:25:00,
2014-12-18 03:30:00,51.4,50.3,29.94,SSE,148,0.0,0.0,96,0.00,,---,0.00,VWS V14.01,2014-12-18 01:30:00,
2014-12-18 03:35:00,51.4,50.3,29.94,SSE,148,0.0,0.0,96,0.00,,---,0.00,VWS V14.01,2014-12-18 01:35:00,
2014-12-18 03:41:00,51.3,50.2,29.94,North,2,0.0,2.7,96,0.00,,---,0.00,VWS V14.01,2014-12-18 01:41:00,
2014-12-18 03:46:00,51.4,50.3,29.94,North,2,0.0,0.0,96,0.00,,---,0.00,VWS V14.01,2014-12-18 01:46:00,
2014-12-18 03:51:00,51.3,50.2,29.94,North,2,0.0,0.0,96,0.00,,---,0.00,VWS V14.01,2014-12-18 01:51:00,
2014-12-18 03:57:00,51.1,50.0,29.94,North,2,0.0,0.0,96,0.00,,---,0.00,VWS V14.01,2014-12-18 01:57:00,
2014-12-18 04:02:00,51.1,50.0,29.94,North,2,0.0,0.0,96,0.00,,---,0.00,VWS V14.01,2014-12-18 02:02:00,
2014-12-18 04:08:00,51.1,50.0,29.91,North,2,0.0,0.0,96,0.00,,---,0.00,VWS V14.01,2014-12-18 02:08:00,
2014-12-18 04:13:00,51.1,50.0,29.91,North,2,0.0,0.0,96,0.00,,---,0.00,VWS V14.01,2014-12-18 02:13:00,
2014-12-18 04:19:00,51.3,50.2,29.91,North,2,0.0,0.0,96,0.00,,---,0.00,VWS V14.01,2014-12-18 02:19:00,
2014-12-18 04:24:00,51.3,50.2,29.91,North,2,0.0,0.0,96,0.00,,---,0.00,VWS V14.01,2014-12-18 02:24:00,
2014-12-18 04:29:00,51.1,50.0,29.91,North,2,0.0,0.0,96,0.00,,---,0.00,VWS V14.01,2014-12-18 02:29:00,
2014-12-18 04:34:00,51.1,50.0,29.91,North,2,0.0,0.0,96,0.00,,---,0.00,VWS V14.01,2014-12-18 02:34:00,
2014-12-18 04:40:00,51.1,50.0,29.91,North,2,0.0,0.0,96,0.00,,---,0.00,VWS V14.01,2014-12-18 02:40:00,
2014-12-18 04:45:00,51.1,50.0,29.91,North,2,0.0,0.0,96,0.00,,---,0.00,VWS V14.01,2014-12-18 02:45:00,
2014-12-18 04:51:00,50.9,49.8,29.91,North,2,0.0,0.0,96,0.00,,---,0.00,VWS V14.01,2014-12-18 02:51:00,
2014-12-18 04:56:00,50.9,49.8,29.91,North,2,0.0,0.0,96,0.00,,---,0.00,VWS V14.01,2014-12-18 02:56:00,
2014-12-18 05:02:00,50.5,49.5,29.91,North,2,0.0,0.0,96,0.00,,---,0.00,VWS V14.01,2014-12-18 03:02:00,
2014-12-18 05:08:00,50.5,49.5,29.94,North,2,0.0,0.0,96,0.00,,---,0.00,VWS V14.01,2014-12-18 03:08:00,
2014-12-18 05:14:00,50.5,49.5,29.94,North,2,0.0,0.0,96,0.00,,---,0.00,VWS V14.01,2014-12-18 03:14:00,
2014-12-18 05:20:00,50.4,49.3,29.94,North,2,0.0,0.0,96,0.00,,---,0.00,VWS V14.01,2014-12-18 03:20:00,
2014-12-18 05:26:00,50.5,49.5,29.94,North,2,0.0,0.0,96,0.00,,---,0.00,VWS V14.01,2014-12-18 03:26:00,
2014-12-18 05:32:00,50.5,49.5,29.94,North,2,0.0,0.0,96,0.00,,---,0.00,VWS V14.01,2014-12-18 03:32:00,
2014-12-18 05:37:00,50.4,49.3,29.94,North,2,0.0,0.0,96,0.00,,---,0.00,VWS V14.01,2014-12-18 03:37:00,
2014-12-18 05:43:00,50.4,49.3,29.94,North,2,0.0,0.0,96,0.00,,---,0.00,VWS V14.01,2014-12-18 03:43:00,
2014-12-18 05:48:00,50.2,49.1,29.94,North,2,0.0,0.0,96,0.00,,---,0.00,VWS V14.01,2014-12-18 03:48:00,
2014-12-18 05:53:00,50.0,48.9,29.94,North,2,0.0,0.0,96,0.00,,---,0.00,VWS V14.01,2014-12-18 03:53:00,
2014-12-18 05:59:00,50.0,48.9,29.94,North,2,0.0,0.0,96,0.00,,---,0.00,VWS V14.01,2014-12-18 03:59:00,
2014-12-18 06:04:00,50.0,48.9,29.94,South,179,0.0,0.0,96,0.00,,---,0.00,VWS V14.01,2014-12-18 04:04:00,
2014-12-18 06:10:00,50.0,48.9,29.94,South,179,0.0,0.0,96,0.00,,---,0.00,VWS V14.01,2014-12-18 04:10:00,
2014-12-18 06:16:00,50.0,48.9,29.94,SSE,156,0.0,0.0,96,0.00,,---,0.00,VWS V14.01,2014-12-18 04:16:00,
2014-12-18 06:21:00,50.0,48.9,29.94,SSE,156,0.0,0.0,96,0.00,,---,0.00,VWS V14.01,2014-12-18 04:21:00,
2014-12-18 06:26:00,50.0,48.9,29.94,SSE,157,0.0,0.0,96,0.00,,---,0.00,VWS V14.01,2014-12-18 04:26:00,
2014-12-18 06:32:00,50.0,48.9,29.94,SSE,156,0.0,0.0,96,0.00,,---,0.00,VWS V14.01,2014-12-18 04:32:00,
2014-12-18 06:38:00,50.0,48.9,29.94,SSE,156,0.0,0.0,96,0.00,,---,0.00,VWS V14.01,2014-12-18 04:38:00,
2014-12-18 06:43:00,50.0,48.9,29.94,SSE,156,0.0,0.0,96,0.00,,---,0.00,VWS V14.01,2014-12-18 04:43:00,
2014-12-18 06:49:00,50.2,49.1,29.94,SSE,156,0.0,0.0,96,0.00,,---,0.00,VWS V14.01,2014-12-18 04:49:00,
2014-12-18 06:54:00,50.2,49.1,29.94,SSE,156,0.0,0.0,96,0.00,,---,0.00,VWS V14.01,2014-12-18 04:54:00,
2014-12-18 06:59:00,50.2,49.1,29.94,SSE,156,0.0,0.0,96,0.00,,---,0.00,VWS V14.01,2014-12-18 04:59:00,
2014-12-18 07:04:00,50.2,49.1,29.94,SSE,156,0.0,0.0,96,0.00,,---,0.00,VWS V14.01,2014-12-18 05:04:00,
2014-12-18 07:10:00,50.0,48.9,29.94,SSE,156,0.0,0.0,96,0.00,,---,0.00,VWS V14.01,2014-12-18 05:10:00,
2014-12-18 07:15:00,49.8,49.0,29.94,SSE,157,0.0,0.0,97,0.00,,---,0.00,VWS V14.01,2014-12-18 05:15:00,
2014-12-18 07:21:00,49.5,48.7,29.94,SSE,156,0.0,0.0,97,0.00,,---,0.00,VWS V14.01,2014-12-18 05:21:00,
2014-12-18 07:27:00,49.3,48.5,29.94,SSW,195,0.0,0.0,97,0.00,,---,0.00,VWS V14.01,2014-12-18 05:27:00,
2014-12-18 07:32:00,49.3,48.5,29.94,South,185,0.0,0.0,97,0.00,,---,0.00,VWS V14.01,2014-12-18 05:32:00,
2014-12-18 07:37:00,49.3,48.5,29.94,South,178,0.0,0.0,97,0.00,,---,0.00,VWS V14.01,2014-12-18 05:37:00,
2014-12-18 07:42:00,49.1,48.3,29.94,South,178,0.0,0.0,97,0.00,,---,0.00,VWS V14.01,2014-12-18 05:42:00,
2014-12-18 07:48:00,49.1,48.3,29.94,South,179,0.0,0.0,97,0.00,,---,0.00,VWS V14.01,2014-12-18 05:48:00,
2014-12-18 07:53:00,49.3,48.5,29.94,SSW,198,0.0,0.0,97,0.00,,---,0.00,VWS V14.01,2014-12-18 05:53:00,
2014-12-18 07:58:00,49.3,48.5,29.94,SSW,192,0.0,0.0,97,0.00,,---,0.00,VWS V14.01,2014-12-18 05:58:00,
2014-12-18 08:04:00,49.5,48.7,29.94,SSW,192,0.0,0.0,97,0.00,,---,0.00,VWS V14.01,2014-12-18 06:04:00,
2014-12-18 08:10:00,49.6,48.8,29.97,SSW,192,0.0,0.0,97,0.00,,---,0.00,VWS V14.01,2014-12-18 06:10:00,
2014-12-18 08:15:00,49.8,49.0,29.97,SSW,192,0.0,0.0,97,0.00,,---,0.00,VWS V14.01,2014-12-18 06:15:00,
2014-12-18 08:20:00,50.0,48.9,29.97,SSW,192,0.0,0.0,96,0.00,,---,0.00,VWS V14.01,2014-12-18 06:20:00,
2014-12-18 08:25:00,50.2,49.1,29.97,SSW,192,0.0,0.0,96,0.00,,---,0.00,VWS V14.01,2014-12-18 06:25:00,
2014-12-18 08:31:00,50.5,49.5,29.97,SSW,192,0.0,0.0,96,0.00,,---,0.00,VWS V14.01,2014-12-18 06:31:00,
2014-12-18 08:37:00,50.9,49.8,29.97,SSW,192,0.0,0.0,96,0.00,,---,0.00,VWS V14.01,2014-12-18 06:37:00,
2014-12-18 08:42:00,51.3,50.2,29.97,SSW,192,0.0,0.0,96,0.00,,---,0.00,VWS V14.01,2014-12-18 06:42:00,
2014-12-18 08:48:00,51.6,50.5,29.97,SSW,192,0.0,0.0,96,0.00,,---,0.00,VWS V14.01,2014-12-18 06:48:00,
2014-12-18 08:53:00,51.8,50.7,29.97,SSW,192,0.0,0.0,96,0.00,,---,0.00,VWS V14.01,2014-12-18 06:53:00,
2014-12-18 08:59:00,52.0,50.9,29.97,SSW,204,0.0,0.0,96,0.00,,---,0.00,VWS V14.01,2014-12-18 06:59:00,
2014-12-18 09:04:00,52.2,51.1,29.97,SW,218,0.0,2.2,96,0.00,,---,0.00,VWS V14.01,2014-12-18 07:04:00,
2014-12-18 09:10:00,52.9,51.8,29.97,SSW,206,0.0,0.0,96,0.00,,---,0.00,VWS V14.01,2014-12-18 07:10:00,
2014-12-18 09:16:00,53.2,52.1,29.97,South,184,0.0,0.0,96,0.00,,---,0.00,VWS V14.01,2014-12-18 07:16:00,
2014-12-18 09:21:00,53.4,52.3,29.97,SSW,200,0.0,2.7,96,0.00,,---,0.00,VWS V14.01,2014-12-18 07:21:00,
2014-12-18 09:27:00,53.6,52.2,29.97,SSW,200,0.0,0.0,95,0.00,,---,0.00,VWS V14.01,2014-12-18 07:27:00,
2014-12-18 09:33:00,53.8,52.4,29.97,SSW,199,0.0,0.0,95,0.00,,---,0.00,VWS V14.01,2014-12-18 07:33:00,
2014-12-18 09:38:00,54.3,52.9,29.97,SSW,199,0.0,0.0,95,0.00,,---,0.00,VWS V14.01,2014-12-18 07:38:00,
2014-12-18 09:43:00,54.7,53.3,29.97,SSW,206,0.0,0.0,95,0.00,,---,0.00,VWS V14.01,2014-12-18 07:43:00,
2014-12-18 09:48:00,55.2,53.8,29.97,SSW,205,0.0,0.0,95,0.00,,---,0.00,VWS V14.01,2014-12-18 07:48:00,
2014-12-18 09:54:00,55.8,54.3,29.97,South,175,2.2,3.6,95,0.00,,---,0.00,VWS V14.01,2014-12-18 07:54:00,
2014-12-18 09:59:00,56.1,54.7,29.97,South,175,0.0,0.0,95,0.00,,---,0.00,VWS V14.01,2014-12-18 07:59:00,
2014-12-18 10:05:00,56.7,55.2,29.97,SW,216,0.0,0.0,95,0.00,,---,0.00,VWS V14.01,2014-12-18 08:05:00,
2014-12-18 10:10:00,56.5,55.1,29.97,SE,146,2.7,4.0,95,0.00,,---,0.00,VWS V14.01,2014-12-18 08:10:00,
2014-12-18 10:16:00,57.0,55.3,29.97,SSE,167,0.0,0.0,94,0.00,,---,0.00,VWS V14.01,2014-12-18 08:16:00,
2014-12-18 10:21:00,57.4,55.7,29.97,South,170,0.0,0.0,94,0.00,,---,0.00,VWS V14.01,2014-12-18 08:21:00,
2014-12-18 10:26:00,57.4,55.7,29.97,SW,226,0.0,3.1,94,0.00,,---,0.00,VWS V14.01,2014-12-18 08:26:00,
2014-12-18 10:31:00,57.6,55.8,29.97,SSW,206,0.0,0.0,94,0.00,,---,0.00,VWS V14.01,2014-12-18 08:31:00,
2014-12-18 10:36:00,57.6,55.8,29.97,WSW,239,2.2,4.9,94,0.00,,---,0.00,VWS V14.01,2014-12-18 08:36:00,
2014-12-18 10:41:00,57.6,55.8,29.97,SSW,207,0.0,4.0,94,0.00,,---,0.00,VWS V14.01,2014-12-18 08:41:00,
2014-12-18 10:47:00,57.4,55.7,29.97,WSW,257,0.0,0.0,94,0.00,,---,0.00,VWS V14.01,2014-12-18 08:47:00,
2014-12-18 10:52:00,57.2,55.5,29.97,West,276,3.6,5.4,94,0.00,,---,0.00,VWS V14.01,2014-12-18 08:52:00,
2014-12-18 10:58:00,56.8,55.1,29.97,SW,226,2.7,5.4,94,0.00,,---,0.00,VWS V14.01,2014-12-18 08:58:00,
2014-12-18 11:03:00,56.8,55.1,29.97,SSW,210,4.9,5.4,94,0.00,,---,0.00,VWS V14.01,2014-12-18 09:03:00,
2014-12-18 11:09:00,57.0,55.3,29.97,SW,227,2.7,3.1,94,0.00,,---,0.00,VWS V14.01,2014-12-18 09:09:00,
2014-12-18 11:15:00,57.2,55.5,29.97,SW,227,4.0,5.8,94,0.00,,---,0.00,VWS V14.01,2014-12-18 09:15:00,
2014-12-18 11:20:00,57.2,55.5,29.97,SW,234,0.0,0.0,94,0.00,,---,0.00,VWS V14.01,2014-12-18 09:20:00,
2014-12-18 11:26:00,57.4,56.0,29.97,SSW,195,0.0,0.0,95,0.00,,---,0.00,VWS V14.01,2014-12-18 09:26:00,
2014-12-18 11:32:00,57.4,56.0,29.97,WSW,243,4.9,5.4,95,0.00,,---,0.00,VWS V14.01,2014-12-18 09:32:00,
2014-12-18 11:37:00,57.2,55.8,29.97,SW,218,2.7,6.3,95,0.00,,---,0.00,VWS V14.01,2014-12-18 09:37:00,
2014-12-18 11:42:00,56.7,55.5,29.97,SSW,197,6.3,6.7,96,0.00,,---,0.00,VWS V14.01,2014-12-18 09:42:00,
2014-12-18 11:47:00,57.0,55.3,29.97,SW,220,2.7,5.4,94,0.00,,---,0.00,VWS V14.01,2014-12-18 09:47:00,
2014-12-18 11:52:00,57.4,55.4,29.97,SW,236,3.1,5.8,93,0.00,,---,0.00,VWS V14.01,2014-12-18 09:52:00,
2014-12-18 11:58:00,57.4,55.1,29.97,SSW,212,2.7,5.8,92,0.00,,---,0.00,VWS V14.01,2014-12-18 09:58:00,
2014-12-18 12:03:00,57.4,54.5,29.97,SW,216,5.8,6.3,90,0.00,,---,0.00,VWS V14.01,2014-12-18 10:03:00,
2014-12-18 12:09:00,57.4,52.9,29.97,SSW,199,8.1,8.1,85,0.00,,---,0.00,VWS V14.01,2014-12-18 10:09:00,
2014-12-18 12:15:00,57.2,51.1,29.97,WSW,244,6.3,8.3,80,0.00,,---,0.00,VWS V14.01,2014-12-18 10:15:00,
2014-12-18 12:20:00,57.2,51.1,29.97,SW,220,3.6,5.4,80,0.00,,---,0.00,VWS V14.01,2014-12-18 10:20:00,
2014-12-18 12:26:00,57.2,50.8,29.97,WSW,239,7.6,7.6,79,0.00,,---,0.00,VWS V14.01,2014-12-18 10:26:00,
2014-12-18 12:32:00,57.0,50.2,29.97,SW,231,6.3,6.7,78,0.00,,---,0.00,VWS V14.01,2014-12-18 10:32:00,
2014-12-18 12:37:00,57.0,50.6,29.97,SW,214,4.0,5.8,79,0.00,,---,0.00,VWS V14.01,2014-12-18 10:37:00,
2014-12-18 12:43:00,56.8,49.4,29.97,West,264,7.6,11.0,76,0.00,,---,0.00,VWS V14.01,2014-12-18 10:43:00,
2014-12-18 12:48:00,56.8,49.0,29.97,WSW,238,8.1,8.1,75,0.00,,---,0.00,VWS V14.01,2014-12-18 10:48:00,
2014-12-18 12:53:00,56.7,48.1,29.97,SW,231,7.6,7.6,73,0.00,,---,0.00,VWS V14.01,2014-12-18 10:53:00,
2014-12-18 12:58:00,56.7,47.8,29.97,SW,230,6.3,11.0,72,0.00,,---,0.00,VWS V14.01,2014-12-18 10:58:00,
2014-12-18 13:04:00,56.5,47.6,29.97,West,274,3.6,7.6,72,0.00,,---,0.00,VWS V14.01,2014-12-18 11:04:00,
2014-12-18 13:09:00,56.3,47.8,29.97,West,264,7.6,11.0,73,0.00,,---,0.00,VWS V14.01,2014-12-18 11:09:00,
2014-12-18 13:15:00,56.1,48.0,29.97,West,271,8.3,8.3,74,0.00,,---,0.00,VWS V14.01,2014-12-18 11:15:00,
2014-12-18 13:21:00,55.9,48.1,29.97,WNW,294,6.3,8.3,75,0.00,,---,0.00,VWS V14.01,2014-12-18 11:21:00,
2014-12-18 13:26:00,55.8,48.7,29.97,SW,223,7.6,7.6,77,0.00,,---,0.00,VWS V14.01,2014-12-18 11:26:00,
2014-12-18 13:31:00,55.4,48.3,29.97,SW,231,5.4,9.2,77,0.00,,---,0.00,VWS V14.01,2014-12-18 11:31:00,
2014-12-18 13:36:00,55.2,48.8,29.97,WSW,253,5.4,8.3,79,0.00,,---,0.00,VWS V14.01,2014-12-18 11:36:00,